Time;durP1;ratioP1;P1;durP2;ratioP2;P2;SDS_P1;SDS_P2;PMS_P1;PMS_P2;Temp;Humidity;BMP_temperature;BMP_pressure;BME280_temperature;BME280_humidity;BME280_pressure;Samples;Min_cycle;Max_cycle;Signal;HPM_P1;HPM_P2
2021/07/27 00:00:22;;;;;;;3.17;2.87;;;24.50;40.60;;;;;;5053505;28;20422;-64
2021/07/27 00:02:48;;;;;;;2.90;2.70;;;24.50;40.40;;;;;;5053935;28;20168;-64
2021/07/27 00:05:13;;;;;;;2.50;2.40;;;24.40;40.30;;;;;;5053504;28;20198;-64
2021/07/27 00:07:39;;;;;;;2.30;2.20;;;24.50;40.40;;;;;;5053406;28;20215;-65
2021/07/27 00:10:06;;;;;;;3.30;3.00;;;24.40;40.30;;;;;;5053668;28;20192;-65
2021/07/27 00:12:32;;;;;;;3.07;2.87;;;24.40;40.30;;;;;;5053708;28;20168;-65
2021/07/27 00:14:57;;;;;;;3.03;2.60;;;24.40;40.30;;;;;;5052917;28;20476;-65
2021/07/27 00:17:24;;;;;;;5.17;2.97;;;24.50;40.30;;;;;;5053023;28;20215;-64
2021/07/27 00:19:50;;;;;;;3.00;2.80;;;24.40;40.30;;;;;;5053420;28;20210;-64
2021/07/27 00:22:15;;;;;;;2.87;2.70;;;24.40;40.30;;;;;;5053046;28;20395;-64
2021/07/27 00:24:41;;;;;;;2.90;2.70;;;24.40;40.20;;;;;;5053279;28;20176;-64
2021/07/27 00:27:07;;;;;;;3.10;2.80;;;24.40;40.30;;;;;;5053337;28;20200;-64
2021/07/27 00:29:34;;;;;;;2.77;2.57;;;24.40;40.20;;;;;;5052749;28;20192;-64
2021/07/27 00:31:59;;;;;;;2.83;2.63;;;24.40;40.10;;;;;;5053262;28;20172;-64
2021/07/27 00:34:26;;;;;;;2.83;2.73;;;24.40;40.10;;;;;;5052989;28;20418;-64
2021/07/27 00:36:51;;;;;;;3.00;2.80;;;24.40;39.90;;;;;;5052625;28;20756;-64
2021/07/27 00:39:17;;;;;;;3.23;2.70;;;24.40;39.90;;;;;;5052791;28;20462;-64
2021/07/27 00:41:42;;;;;;;2.97;2.67;;;24.40;39.80;;;;;;5053138;28;20643;-64
2021/07/27 00:44:08;;;;;;;3.07;2.87;;;24.40;39.80;;;;;;5052446;28;20176;-64
2021/07/27 00:46:33;;;;;;;3.40;3.20;;;24.40;39.70;;;;;;5052752;28;20199;-65
2021/07/27 00:49:00;;;;;;;3.50;3.20;;;24.40;39.70;;;;;;5052719;28;20204;-65
2021/07/27 00:51:28;;;;;;;3.60;2.97;;;24.30;39.60;;;;;;5052688;28;20168;-64
2021/07/27 00:53:53;;;;;;;3.27;3.07;;;24.40;39.60;;;;;;5052859;28;20409;-64
2021/07/27 00:56:19;;;;;;;3.27;3.07;;;24.40;39.50;;;;;;5052808;28;20497;-64
2021/07/27 00:58:44;;;;;;;3.13;2.93;;;24.30;39.40;;;;;;5051973;28;20620;-64
2021/07/27 01:01:10;;;;;;;3.30;3.03;;;24.30;39.40;;;;;;5052586;28;20183;-65
2021/07/27 01:03:38;;;;;;;3.57;3.27;;;24.30;39.50;;;;;;5053171;28;20218;-64
2021/07/27 01:06:04;;;;;;;3.70;3.40;;;24.30;39.50;;;;;;5051984;28;20184;-64
2021/07/27 01:08:30;;;;;;;3.67;3.47;;;24.30;39.50;;;;;;5051809;28;20580;-65
2021/07/27 01:10:56;;;;;;;3.50;3.30;;;24.30;39.50;;;;;;5052378;28;20586;-65
2021/07/27 01:13:21;;;;;;;3.37;3.17;;;24.30;39.40;;;;;;5052161;28;20493;-65
2021/07/27 01:15:47;;;;;;;3.30;3.00;;;24.30;39.40;;;;;;5052267;28;20168;-64
2021/07/27 01:18:20;;;;;;;3.63;3.33;;;24.30;39.50;;;;;;5052363;28;20283;-64
2021/07/27 01:39:40;;;;;;;3.63;3.43;;;24.30;39.30;;;;;;5052323;28;20939;-65
2021/07/27 01:42:08;;;;;;;3.37;3.17;;;24.20;39.20;;;;;;5052157;28;20436;-65
2021/07/27 01:44:45;;;;;;;4.23;3.33;;;24.30;39.30;;;;;;5052129;28;20493;-65
2021/07/27 01:47:18;;;;;;;3.73;3.43;;;24.30;39.30;;;;;;5052574;28;20445;-65
2021/07/27 01:49:45;;;;;;;3.30;3.10;;;24.30;39.30;;;;;;5052765;28;20936;-65
2021/07/27 01:52:14;;;;;;;4.10;3.80;;;24.30;39.30;;;;;;5052551;28;20411;-65
2021/07/27 01:54:45;;;;;;;3.67;3.37;;;24.20;39.30;;;;;;5052293;28;20411;-64
2021/07/27 01:57:12;;;;;;;3.70;3.40;;;24.20;39.30;;;;;;5052531;28;20402;-64
2021/07/27 01:59:39;;;;;;;5.97;4.10;;;24.30;39.40;;;;;;5051721;28;20430;-64
2021/07/27 02:02:05;;;;;;;3.97;3.67;;;24.20;39.30;;;;;;5052067;28;20548;-64
2021/07/27 02:04:31;;;;;;;3.60;3.37;;;24.20;39.30;;;;;;5051284;28;20506;-64
2021/07/27 02:06:57;;;;;;;4.60;3.70;;;24.20;39.20;;;;;;5051529;28;21018;-64
2021/07/27 02:09:22;;;;;;;4.27;3.87;;;24.20;39.20;;;;;;5051496;28;20192;-64
2021/07/27 02:11:53;;;;;;;3.90;3.60;;;24.20;39.20;;;;;;5051742;28;20253;-64
2021/07/27 02:14:18;;;;;;;4.83;4.53;;;24.20;39.20;;;;;;5051447;28;20251;-64
2021/07/27 02:16:44;;;;;;;3.90;3.60;;;24.20;39.20;;;;;;5051616;28;20955;-65
2021/07/27 02:19:09;;;;;;;4.27;3.87;;;24.20;39.20;;;;;;5050442;28;20286;-65
2021/07/27 02:21:35;;;;;;;4.00;3.70;;;24.20;39.20;;;;;;5054833;28;20251;-64
2021/07/27 02:24:02;;;;;;;4.10;3.80;;;24.20;39.20;;;;;;5055828;28;20654;-64
2021/07/27 02:26:28;;;;;;;4.07;3.77;;;24.20;39.20;;;;;;5055541;28;20228;-65
2021/07/27 02:28:54;;;;;;;3.60;3.40;;;24.20;39.20;;;;;;5055796;28;20422;-65
2021/07/27 02:31:34;;;;;;;4.50;4.20;;;24.20;39.30;;;;;;5056229;28;20414;-65
2021/07/27 02:34:00;;;;;;;4.37;4.00;;;24.20;39.20;;;;;;5055816;28;20180;-65
2021/07/27 02:36:25;;;;;;;4.43;4.03;;;24.20;39.20;;;;;;5055140;28;20787;-65
2021/07/27 02:38:51;;;;;;;3.60;3.40;;;24.20;39.20;;;;;;5055394;28;20204;-65
2021/07/27 02:41:29;;;;;;;3.90;3.60;;;24.20;39.20;;;;;;5055427;28;20176;-65
2021/07/27 02:43:54;;;;;;;3.57;3.37;;;24.20;39.20;;;;;;5055192;28;20551;-65
2021/07/27 02:46:20;;;;;;;4.10;3.77;;;24.20;39.20;;;;;;5054996;28;20453;-65
2021/07/27 02:48:48;;;;;;;4.20;3.93;;;24.20;39.10;;;;;;5055339;28;20213;-64
2021/07/27 02:51:14;;;;;;;4.30;4.00;;;24.20;39.20;;;;;;5055006;28;20206;-65
2021/07/27 02:53:39;;;;;;;3.63;3.40;;;24.20;39.10;;;;;;5055347;28;20456;-65
2021/07/27 02:56:05;;;;;;;3.97;3.70;;;24.20;39.10;;;;;;5054891;28;20642;-65
2021/07/27 02:58:31;;;;;;;4.37;4.07;;;24.20;39.20;;;;;;5054570;28;20196;-65
2021/07/27 03:00:57;;;;;;;4.13;3.83;;;24.10;39.10;;;;;;5054897;28;20172;-65
2021/07/27 03:03:23;;;;;;;7.83;4.37;;;24.20;39.20;;;;;;5055175;28;20517;-65
2021/07/27 03:05:49;;;;;;;3.60;3.40;;;24.20;39.90;;;;;;5054503;28;20418;-65
2021/07/27 03:08:20;;;;;;;4.47;4.07;;;24.20;39.20;;;;;;5054406;28;20291;-65
2021/07/27 03:10:46;;;;;;;4.20;3.90;;;24.20;39.10;;;;;;5054783;28;20482;-64
2021/07/27 03:13:11;;;;;;;4.17;3.87;;;24.20;39.10;;;;;;5054419;28;20414;-64
2021/07/27 03:15:37;;;;;;;6.70;3.90;;;24.20;39.10;;;;;;5054498;28;20169;-64
2021/07/27 03:18:02;;;;;;;4.27;3.97;;;24.10;38.90;;;;;;5054187;28;20180;-64
2021/07/27 03:20:28;;;;;;;4.27;3.97;;;24.10;38.90;;;;;;5054063;28;20222;-64
2021/07/27 03:22:55;;;;;;;4.67;4.27;;;24.10;38.90;;;;;;5053054;28;20681;-64
2021/07/27 03:25:21;;;;;;;4.23;3.83;;;24.20;39.00;;;;;;5054236;28;20525;-64
2021/07/27 03:27:49;;;;;;;3.77;3.57;;;24.10;38.80;;;;;;5054112;28;20462;-64
2021/07/27 03:30:16;;;;;;;3.93;3.63;;;24.10;38.80;;;;;;5054093;28;20492;-64
2021/07/27 03:32:42;;;;;;;4.10;3.80;;;24.10;38.90;;;;;;5053720;28;20434;-64
2021/07/27 03:35:11;;;;;;;4.13;3.73;;;24.10;38.80;;;;;;5053482;28;20411;-64
2021/07/27 03:37:36;;;;;;;4.20;3.63;;;24.10;38.90;;;;;;5053932;28;20415;-64
2021/07/27 03:40:02;;;;;;;4.63;4.03;;;24.10;38.90;;;;;;5053494;28;20573;-65
2021/07/27 03:42:28;;;;;;;4.20;4.00;;;24.10;38.90;;;;;;5053682;28;20180;-65
2021/07/27 03:44:55;;;;;;;4.17;3.87;;;24.10;39.00;;;;;;5053859;28;20216;-65
2021/07/27 03:47:20;;;;;;;4.30;4.00;;;24.10;39.00;;;;;;5054226;28;20200;-65
2021/07/27 03:49:46;;;;;;;4.43;4.13;;;24.10;39.10;;;;;;5053932;28;20437;-65
2021/07/27 03:52:11;;;;;;;4.30;3.93;;;24.10;39.10;;;;;;5054148;28;20178;-65
2021/07/27 03:54:37;;;;;;;5.87;4.43;;;24.10;39.10;;;;;;5053925;28;20184;-66
2021/07/27 03:57:06;;;;;;;4.50;4.17;;;24.10;39.10;;;;;;5053482;28;20176;-65
2021/07/27 03:59:32;;;;;;;4.27;3.97;;;24.10;39.00;;;;;;5053299;28;20200;-65
2021/07/27 04:01:58;;;;;;;5.17;4.77;;;24.10;39.00;;;;;;5053505;28;20409;-65
2021/07/27 04:04:24;;;;;;;4.60;3.73;;;24.10;39.00;;;;;;5053198;28;20442;-65
2021/07/27 04:06:49;;;;;;;5.57;5.17;;;24.10;39.00;;;;;;5053296;28;20456;-66
2021/07/27 04:09:15;;;;;;;4.57;4.17;;;24.10;39.10;;;;;;5053503;28;20184;-66
2021/07/27 04:11:41;;;;;;;5.03;4.63;;;24.10;39.10;;;;;;5053078;28;20176;-66
2021/07/27 04:14:07;;;;;;;5.07;4.53;;;24.10;39.10;;;;;;5053551;28;20172;-65
2021/07/27 04:16:36;;;;;;;4.73;4.43;;;24.10;39.30;;;;;;5053215;28;20406;-64
2021/07/27 04:19:02;;;;;;;4.30;3.90;;;24.10;39.40;;;;;;5053180;28;20422;-64
2021/07/27 04:21:28;;;;;;;4.77;4.37;;;24.10;39.40;;;;;;5053589;28;20414;-64
2021/07/27 04:23:53;;;;;;;4.60;4.30;;;24.10;39.30;;;;;;5052806;28;20484;-64
2021/07/27 04:26:19;;;;;;;5.00;4.60;;;24.10;39.30;;;;;;5052587;28;20206;-65
2021/07/27 04:28:44;;;;;;;4.40;4.10;;;24.10;39.40;;;;;;5053209;28;20757;-64
2021/07/27 04:31:10;;;;;;;5.50;5.10;;;24.10;40.00;;;;;;5053354;28;20257;-65
2021/07/27 04:33:37;;;;;;;4.93;4.63;;;24.10;39.30;;;;;;5052539;28;20175;-64
2021/07/27 04:36:02;;;;;;;5.13;4.83;;;24.10;39.20;;;;;;5052308;28;20183;-65
2021/07/27 04:38:28;;;;;;;5.00;4.70;;;24.10;39.20;;;;;;5052221;28;20422;-65
2021/07/27 04:40:54;;;;;;;5.70;5.27;;;24.10;39.10;;;;;;5051833;28;20207;-65
2021/07/27 04:43:20;;;;;;;7.03;4.73;;;24.20;39.40;;;;;;5039733;28;20181;-67
2021/07/27 04:45:45;;;;;;;5.30;4.70;;;24.10;39.10;;;;;;5036671;28;20412;-67
2021/07/27 04:48:11;;;;;;;5.37;4.73;;;24.20;39.20;;;;;;5032181;28;20467;-67
2021/07/27 04:50:37;;;;;;;4.70;4.40;;;24.10;39.10;;;;;;5032900;28;20180;-67
2021/07/27 04:53:06;;;;;;;4.30;4.00;;;24.10;39.00;;;;;;5033281;28;20172;-67
2021/07/27 04:55:31;;;;;;;4.23;3.93;;;24.20;39.10;;;;;;5031942;28;20408;-67
2021/07/27 04:57:57;;;;;;;4.63;4.23;;;24.20;39.10;;;;;;5032688;28;20407;-67
2021/07/27 05:00:26;;;;;;;4.73;4.33;;;24.20;39.10;;;;;;5035986;28;20530;-66
2021/07/27 05:02:52;;;;;;;6.00;4.60;;;24.20;39.10;;;;;;5032508;28;20264;-67
2021/07/27 05:05:18;;;;;;;4.73;4.43;;;24.20;39.10;;;;;;5069179;28;20521;-67
2021/07/27 05:07:45;;;;;;;5.20;4.80;;;24.20;39.00;;;;;;5072187;28;20206;-66
2021/07/27 05:10:11;;;;;;;6.20;5.60;;;24.20;39.00;;;;;;5072635;28;20922;-67
2021/07/27 05:12:37;;;;;;;4.87;4.47;;;24.20;39.00;;;;;;5072766;28;20406;-66
2021/07/27 05:15:04;;;;;;;5.00;4.60;;;24.20;38.80;;;;;;5072344;28;20405;-67
2021/07/27 05:17:29;;;;;;;5.10;4.70;;;24.20;38.60;;;;;;5071935;28;20418;-67
2021/07/27 05:19:55;;;;;;;5.10;4.70;;;24.20;38.60;;;;;;5072185;28;20578;-66
2021/07/27 05:22:23;;;;;;;4.83;4.40;;;24.20;38.50;;;;;;5072717;28;20179;-67
2021/07/27 05:24:49;;;;;;;5.30;4.90;;;24.20;38.50;;;;;;5071547;28;20665;-67
2021/07/27 05:27:15;;;;;;;4.80;4.40;;;24.20;38.40;;;;;;5071804;28;21013;-65
2021/07/27 05:29:41;;;;;;;5.70;4.77;;;24.20;38.30;;;;;;5071479;28;20468;-65
2021/07/27 05:32:06;;;;;;;5.43;4.47;;;24.20;38.40;;;;;;5071534;28;20190;-65
2021/07/27 05:34:32;;;;;;;5.23;4.70;;;24.20;38.40;;;;;;5071941;28;20171;-64
2021/07/27 05:36:57;;;;;;;5.80;5.20;;;24.20;38.40;;;;;;5072147;28;20677;-64
2021/07/27 05:39:23;;;;;;;5.17;4.63;;;24.20;38.40;;;;;;5071666;28;20197;-64
2021/07/27 05:41:48;;;;;;;6.77;5.87;;;24.20;38.40;;;;;;5071225;28;20263;-66
2021/07/27 05:44:14;;;;;;;5.40;5.00;;;24.30;38.40;;;;;;5072504;28;20661;-64
2021/07/27 05:46:39;;;;;;;5.67;4.67;;;24.20;38.40;;;;;;5072042;28;20265;-64
2021/07/27 05:49:08;;;;;;;7.37;5.73;;;24.20;38.30;;;;;;5071925;28;20611;-63
2021/07/27 05:51:34;;;;;;;6.80;4.57;;;24.20;38.40;;;;;;5071789;28;20183;-65
2021/07/27 05:54:00;;;;;;;5.33;4.67;;;24.20;38.40;;;;;;5072250;28;20500;-64
2021/07/27 05:56:25;;;;;;;6.70;4.67;;;24.30;38.50;;;;;;5075028;28;20190;-64
2021/07/27 05:58:51;;;;;;;6.03;4.20;;;24.30;38.50;;;;;;5075821;28;20297;-65
2021/07/27 06:01:16;;;;;;;5.87;5.27;;;24.30;38.50;;;;;;5075915;28;20191;-65
2021/07/27 06:03:42;;;;;;;4.93;4.47;;;24.30;38.60;;;;;;5075889;28;20183;-65
2021/07/27 06:06:07;;;;;;;4.87;4.57;;;24.30;38.60;;;;;;5075565;28;20184;-65
2021/07/27 06:08:33;;;;;;;4.83;4.43;;;24.30;38.60;;;;;;5075563;28;20681;-66
2021/07/27 06:10:58;;;;;;;5.60;5.10;;;24.30;38.60;;;;;;5075097;28;20167;-64
2021/07/27 06:13:24;;;;;;;11.70;5.37;;;24.30;38.60;;;;;;5075725;28;20653;-65
2021/07/27 06:15:49;;;;;;;4.80;4.33;;;24.30;38.60;;;;;;5075161;28;20180;-65
2021/07/27 06:18:15;;;;;;;8.97;4.83;;;24.30;38.80;;;;;;5075086;28;20200;-65
2021/07/27 06:20:41;;;;;;;5.47;5.07;;;24.30;38.90;;;;;;5075325;28;20189;-65
2021/07/27 06:23:06;;;;;;;5.50;4.97;;;24.40;39.00;;;;;;5075344;28;20175;-64
2021/07/27 06:25:32;;;;;;;5.43;4.93;;;24.40;39.00;;;;;;5074658;28;20179;-64
2021/07/27 06:27:57;;;;;;;5.73;5.33;;;24.30;38.70;;;;;;5075192;28;20239;-65
2021/07/27 06:30:23;;;;;;;5.70;5.30;;;24.30;38.60;;;;;;5074726;28;20639;-64
2021/07/27 06:32:48;;;;;;;5.90;5.40;;;24.40;38.70;;;;;;5075045;28;20187;-64
2021/07/27 06:35:14;;;;;;;5.40;4.90;;;24.40;39.50;;;;;;5074822;28;20171;-64
2021/07/27 06:37:40;;;;;;;5.30;4.80;;;24.30;38.70;;;;;;5074923;28;20214;-65
2021/07/27 06:40:06;;;;;;;5.60;4.97;;;24.30;38.70;;;;;;5074592;28;20448;-67
2021/07/27 06:42:32;;;;;;;5.50;5.10;;;24.30;38.70;;;;;;5075164;28;20950;-66
2021/07/27 06:44:58;;;;;;;5.77;4.40;;;24.30;38.70;;;;;;5074781;28;20258;-67
2021/07/27 06:47:23;;;;;;;5.07;4.67;;;24.30;38.70;;;;;;5074668;28;20504;-64
2021/07/27 06:49:50;;;;;;;5.80;5.27;;;24.30;38.80;;;;;;5065623;28;20609;-65
2021/07/27 06:52:20;;;;;;;5.20;4.80;;;24.30;38.80;;;;;;5053852;28;20269;-65
2021/07/27 06:54:45;;;;;;;6.30;5.10;;;24.30;38.90;;;;;;5053486;28;20940;-66
2021/07/27 06:57:11;;;;;;;5.23;4.77;;;24.30;39.10;;;;;;5054818;28;20481;-65
2021/07/27 06:59:36;;;;;;;6.73;4.90;;;24.30;39.20;;;;;;5054547;28;20196;-64
2021/07/27 07:02:02;;;;;;;5.97;4.60;;;24.30;39.40;;;;;;5053922;28;20727;-63
2021/07/27 07:04:28;;;;;;;5.90;4.97;;;24.30;39.30;;;;;;5053908;28;20194;-65
2021/07/27 07:06:53;;;;;;;8.23;4.77;;;24.30;39.20;;;;;;5053255;28;20207;-64
2021/07/27 07:09:19;;;;;;;5.70;5.20;;;24.40;39.20;;;;;;5053607;28;20199;-67
2021/07/27 07:11:44;;;;;;;4.97;4.40;;;24.40;39.20;;;;;;5052813;28;20176;-67
2021/07/27 07:14:10;;;;;;;7.23;5.00;;;24.40;39.10;;;;;;5053850;28;20172;-66
2021/07/27 07:16:35;;;;;;;5.07;4.30;;;24.40;39.80;;;;;;5053806;28;20199;-67
2021/07/27 07:19:01;;;;;;;5.87;5.03;;;24.40;39.10;;;;;;5054018;28;20568;-67
2021/07/27 07:21:26;;;;;;;5.20;4.80;;;24.50;39.20;;;;;;5054010;28;20171;-67
2021/07/27 07:23:52;;;;;;;6.20;4.67;;;24.50;39.10;;;;;;5054018;28;20681;-66
2021/07/27 07:26:17;;;;;;;5.47;4.97;;;24.50;39.10;;;;;;5053968;28;20179;-66
2021/07/27 07:28:43;;;;;;;6.33;5.23;;;24.50;39.10;;;;;;5053932;28;20183;-68
2021/07/27 07:31:16;;;;;;;4.37;4.07;;;24.50;39.20;;;;;;5053535;28;20214;-64
2021/07/27 07:33:42;;;;;;;5.90;4.70;;;24.50;39.20;;;;;;5053690;28;20180;-64
2021/07/27 07:36:14;;;;;;;4.67;4.30;;;24.50;39.10;;;;;;5053444;28;20411;-64
2021/07/27 07:38:41;;;;;;;5.17;4.77;;;24.50;39.10;;;;;;5053287;28;20199;-64
2021/07/27 07:41:09;;;;;;;5.00;4.70;;;24.50;39.20;;;;;;5053287;28;20451;-65
2021/07/27 07:43:35;;;;;;;5.97;5.47;;;24.50;39.20;;;;;;5053612;28;21008;-66
2021/07/27 07:46:00;;;;;;;4.80;4.40;;;24.50;39.20;;;;;;5054679;28;20494;-67
2021/07/27 07:48:26;;;;;;;5.00;4.70;;;24.50;39.30;;;;;;5056305;28;20204;-65
2021/07/27 07:50:52;;;;;;;6.63;4.37;;;24.50;39.40;;;;;;5053995;28;20176;-68
2021/07/27 07:53:17;;;;;;;5.87;5.47;;;24.50;39.30;;;;;;5053990;28;20413;-67
2021/07/27 07:55:43;;;;;;;5.47;5.03;;;24.50;39.10;;;;;;5053568;28;20199;-66
2021/07/27 07:58:08;;;;;;;6.40;5.80;;;24.60;39.10;;;;;;5048207;28;20196;-66
2021/07/27 08:00:34;;;;;;;5.20;4.80;;;24.60;39.00;;;;;;5047302;28;20215;-67
2021/07/27 08:03:03;;;;;;;4.93;4.57;;;24.70;38.90;;;;;;5049620;28;20192;-66
2021/07/27 08:05:30;;;;;;;5.07;4.57;;;24.70;38.80;;;;;;5052220;28;20666;-66
2021/07/27 08:07:55;;;;;;;5.50;5.10;;;24.70;38.70;;;;;;5052498;28;20544;-66
2021/07/27 08:10:21;;;;;;;5.53;5.13;;;24.80;38.60;;;;;;5052804;28;20501;-66
2021/07/27 08:12:47;;;;;;;5.90;4.63;;;24.80;38.50;;;;;;5052662;28;20180;-68
2021/07/27 08:15:17;;;;;;;5.93;5.43;;;24.80;38.40;;;;;;5052458;28;20406;-69
2021/07/27 08:17:43;;;;;;;5.30;4.90;;;24.80;38.40;;;;;;5052586;28;20411;-66
2021/07/27 08:20:09;;;;;;;5.00;4.30;;;24.70;38.30;;;;;;5052693;28;20996;-66
2021/07/27 08:22:39;;;;;;;4.87;4.57;;;24.70;38.30;;;;;;5052400;28;20860;-64
2021/07/27 08:25:07;;;;;;;5.87;5.27;;;24.70;39.00;;;;;;5052252;28;20414;-64
2021/07/27 08:27:32;;;;;;;5.00;4.60;;;24.80;38.40;;;;;;5041708;28;20506;-65
2021/07/27 08:29:58;;;;;;;5.67;5.17;;;24.80;38.30;;;;;;5051920;28;20458;-64
2021/07/27 08:32:23;;;;;;;6.80;6.20;;;24.80;38.40;;;;;;5051112;28;20532;-65
2021/07/27 08:34:49;;;;;;;6.90;5.80;;;24.70;38.20;;;;;;5051669;28;20168;-65
2021/07/27 08:37:14;;;;;;;6.13;5.40;;;24.70;38.40;;;;;;5051911;28;20187;-64
2021/07/27 08:39:40;;;;;;;6.40;5.90;;;24.80;38.50;;;;;;5052076;28;20235;-63
2021/07/27 08:42:06;;;;;;;7.30;5.33;;;24.80;38.40;;;;;;5052109;28;20592;-63
2021/07/27 08:44:36;;;;;;;6.10;5.50;;;24.70;38.40;;;;;;5051614;28;20233;-64
2021/07/27 08:47:03;;;;;;;6.60;6.10;;;24.70;38.50;;;;;;5051935;28;20632;-65
2021/07/27 08:49:32;;;;;;;5.87;5.37;;;24.80;38.40;;;;;;5051921;28;20932;-64
2021/07/27 08:51:59;;;;;;;5.90;5.40;;;24.80;38.40;;;;;;5051805;28;20403;-64
2021/07/27 08:54:25;;;;;;;6.90;6.30;;;24.80;38.20;;;;;;5051788;28;20754;-63
2021/07/27 08:56:52;;;;;;;6.20;5.60;;;24.80;38.20;;;;;;5051848;28;20520;-65
2021/07/27 08:59:19;;;;;;;5.60;5.20;;;24.80;38.30;;;;;;5051720;28;20424;-65
2021/07/27 09:01:45;;;;;;;5.83;5.40;;;24.80;38.20;;;;;;5051875;28;20402;-65
2021/07/27 09:04:11;;;;;;;5.63;5.10;;;24.80;38.10;;;;;;5048738;28;20438;-65
2021/07/27 09:06:37;;;;;;;5.50;5.00;;;24.80;38.00;;;;;;5048650;28;20504;-64
2021/07/27 09:09:10;;;;;;;7.23;6.63;;;24.80;38.00;;;;;;5052022;28;20447;-64
2021/07/27 09:11:48;;;;;;;5.60;5.20;;;24.80;38.10;;;;;;5050643;28;20195;-64
2021/07/27 09:14:18;;;;;;;6.53;6.03;;;24.80;38.20;;;;;;5051396;28;20401;-64
2021/07/27 09:16:50;;;;;;;6.50;6.00;;;24.80;38.20;;;;;;5051635;28;20397;-63
2021/07/27 09:19:16;;;;;;;8.80;6.13;;;24.80;38.20;;;;;;5031808;28;20477;-64
2021/07/27 09:21:46;;;;;;;6.63;6.03;;;24.80;38.20;;;;;;5031939;28;20419;-63
2021/07/27 09:24:34;;;;;;;5.83;5.43;;;24.70;38.30;;;;;;5032863;28;20437;-64
2021/07/27 09:27:02;;;;;;;6.63;6.03;;;24.70;38.50;;;;;;5032192;28;20447;-63
2021/07/27 09:29:29;;;;;;;6.20;4.90;;;24.80;38.40;;;;;;5031331;28;20937;-64
2021/07/27 09:31:58;;;;;;;5.57;5.10;;;24.80;38.30;;;;;;5031568;28;20411;-64
2021/07/27 09:34:25;;;;;;;6.70;6.10;;;24.80;38.30;;;;;;5032046;28;20412;-64
2021/07/27 09:37:04;;;;;;;8.33;6.50;;;24.70;38.40;;;;;;5031347;28;20415;-64
2021/07/27 09:39:31;;;;;;;7.17;6.50;;;24.80;38.30;;;;;;5031763;28;20430;-64
2021/07/27 09:42:02;;;;;;;6.17;5.67;;;24.80;38.20;;;;;;5045579;28;20419;-64
2021/07/27 09:44:29;;;;;;;6.33;5.83;;;24.80;38.00;;;;;;5051426;28;20418;-64
2021/07/27 09:46:56;;;;;;;7.10;6.50;;;24.80;38.10;;;;;;5051332;28;21023;-64
2021/07/27 09:49:23;;;;;;;6.37;5.87;;;24.90;38.00;;;;;;5051421;28;20434;-64
2021/07/27 09:51:50;;;;;;;6.87;6.27;;;24.80;37.90;;;;;;5051230;28;20406;-64
2021/07/27 09:54:18;;;;;;;6.27;5.87;;;24.80;37.80;;;;;;5051584;28;20407;-64
2021/07/27 09:56:46;;;;;;;6.50;6.03;;;24.80;37.70;;;;;;5051268;28;20440;-64
2021/07/27 09:59:15;;;;;;;6.10;5.50;;;24.80;37.60;;;;;;5051113;28;20824;-64
2021/07/27 10:01:43;;;;;;;6.43;5.90;;;24.90;37.70;;;;;;5051039;28;20438;-66
2021/07/27 10:04:09;;;;;;;7.00;6.50;;;24.90;37.60;;;;;;5051454;28;20923;-64
2021/07/27 10:06:37;;;;;;;6.30;5.73;;;24.90;37.30;;;;;;5050973;28;21026;-64
2021/07/27 10:09:04;;;;;;;6.20;5.77;;;25.00;37.30;;;;;;5051432;28;20434;-64
2021/07/27 10:11:43;;;;;;;8.57;6.43;;;25.00;37.20;;;;;;5051333;28;20410;-65
2021/07/27 10:14:15;;;;;;;5.83;5.33;;;25.00;37.10;;;;;;5051148;28;20481;-65
2021/07/27 10:16:41;;;;;;;5.90;5.40;;;25.10;37.00;;;;;;5050953;28;20450;-65
2021/07/27 10:19:25;;;;;;;6.80;6.03;;;25.00;36.80;;;;;;5051701;28;20434;-66
2021/07/27 10:22:05;;;;;;;6.70;6.20;;;25.00;37.00;;;;;;5050774;28;20406;-65
2021/07/27 10:24:41;;;;;;;6.37;5.87;;;25.00;37.00;;;;;;5051255;28;20751;-65
2021/07/27 10:27:16;;;;;;;5.27;4.87;;;24.90;37.00;;;;;;5051488;28;20459;-65
2021/07/27 10:29:42;;;;;;;6.00;5.50;;;25.00;37.10;;;;;;5051065;28;20465;-65
2021/07/27 10:32:16;;;;;;;7.97;6.90;;;25.00;37.00;;;;;;5050831;28;21158;-65
2021/07/27 10:34:43;;;;;;;6.20;5.70;;;25.00;37.00;;;;;;5051185;28;20194;-65
2021/07/27 10:37:09;;;;;;;7.17;6.57;;;25.00;36.90;;;;;;5050980;28;20464;-65
2021/07/27 10:39:45;;;;;;;6.83;5.50;;;25.10;36.90;;;;;;5051281;28;20521;-64
2021/07/27 10:42:10;;;;;;;6.70;6.20;;;25.10;36.70;;;;;;5052254;28;20777;-64
2021/07/27 10:44:36;;;;;;;6.70;6.20;;;25.10;36.60;;;;;;5054171;28;20412;-64
2021/07/27 10:47:02;;;;;;;6.80;6.13;;;25.10;36.50;;;;;;5054700;28;20662;-64
2021/07/27 10:49:28;;;;;;;6.20;5.70;;;25.20;36.30;;;;;;5054654;28;20284;-65
2021/07/27 10:51:58;;;;;;;6.07;5.50;;;25.20;36.10;;;;;;5054316;28;20183;-65
2021/07/27 10:54:29;;;;;;;6.40;5.90;;;25.20;35.80;;;;;;5054618;28;20335;-65
2021/07/27 10:56:58;;;;;;;6.40;5.80;;;25.20;35.70;;;;;;5054562;28;20407;-65
2021/07/27 10:59:24;;;;;;;6.53;5.93;;;25.10;35.50;;;;;;5053914;28;20937;-65
2021/07/27 11:01:52;;;;;;;5.97;5.40;;;25.10;35.70;;;;;;5054377;28;20870;-65
2021/07/27 11:04:20;;;;;;;6.80;6.30;;;25.00;35.70;;;;;;5054654;28;20434;-64
2021/07/27 11:06:46;;;;;;;7.00;6.40;;;25.00;35.70;;;;;;5053546;28;20450;-64
2021/07/27 11:09:12;;;;;;;5.97;5.57;;;25.00;35.70;;;;;;5054450;28;20433;-65
2021/07/27 11:11:45;;;;;;;5.60;5.20;;;24.90;35.60;;;;;;5054358;28;20636;-65
2021/07/27 11:14:18;;;;;;;6.93;6.10;;;24.90;35.70;;;;;;5054104;28;20178;-65
2021/07/27 11:16:44;;;;;;;6.90;6.30;;;24.90;35.60;;;;;;5053956;28;20402;-65
2021/07/27 11:19:10;;;;;;;5.63;5.23;;;24.90;35.50;;;;;;5053088;28;20453;-65
2021/07/27 11:21:39;;;;;;;6.27;5.67;;;24.90;35.30;;;;;;5053725;28;20179;-65
2021/07/27 11:24:05;;;;;;;5.80;5.40;;;24.90;35.40;;;;;;5054344;28;20844;-65
2021/07/27 11:26:37;;;;;;;6.13;5.70;;;24.90;35.20;;;;;;5053593;28;20514;-65
2021/07/27 11:29:10;;;;;;;5.83;5.40;;;24.90;35.30;;;;;;5053964;28;20192;-65
2021/07/27 11:31:46;;;;;;;5.57;5.17;;;24.90;35.40;;;;;;5054107;28;20783;-66
2021/07/27 11:34:12;;;;;;;6.03;5.53;;;24.90;35.40;;;;;;5053989;28;20483;-66
2021/07/27 11:36:37;;;;;;;5.77;5.37;;;24.90;35.40;;;;;;5053317;28;20415;-65
2021/07/27 11:39:07;;;;;;;5.47;5.07;;;24.90;35.40;;;;;;5053833;28;20200;-65
2021/07/27 11:41:32;;;;;;;5.40;5.03;;;24.90;35.40;;;;;;5053873;28;20176;-65
2021/07/27 11:43:58;;;;;;;6.53;6.07;;;24.90;35.30;;;;;;5053450;28;20414;-65
2021/07/27 11:46:31;;;;;;;5.40;4.90;;;24.80;35.00;;;;;;5053111;28;20180;-65
2021/07/27 11:48:57;;;;;;;6.97;5.90;;;24.90;35.00;;;;;;5053680;28;20511;-65
2021/07/27 11:51:30;;;;;;;6.53;5.83;;;24.80;34.90;;;;;;5053116;28;20437;-64
2021/07/27 11:53:56;;;;;;;5.80;5.40;;;24.90;35.00;;;;;;5052982;28;20195;-65
2021/07/27 11:56:22;;;;;;;6.17;5.77;;;24.80;34.90;;;;;;5053222;28;20419;-65
2021/07/27 11:58:48;;;;;;;5.67;5.27;;;24.80;35.00;;;;;;5053146;28;20445;-65
2021/07/27 12:01:15;;;;;;;7.10;5.27;;;24.80;35.00;;;;;;5053213;28;20172;-65
2021/07/27 12:03:41;;;;;;;6.77;6.27;;;24.80;35.00;;;;;;5053029;28;20415;-65
2021/07/27 12:06:13;;;;;;;5.97;5.57;;;24.80;35.10;;;;;;5052427;28;20497;-65
2021/07/27 12:08:39;;;;;;;5.53;5.13;;;24.80;35.10;;;;;;5053030;28;20434;-65
2021/07/27 12:11:06;;;;;;;5.90;5.40;;;24.80;35.10;;;;;;5053154;28;20409;-65
2021/07/27 12:13:31;;;;;;;6.20;5.70;;;24.80;35.20;;;;;;5052642;28;20391;-65
2021/07/27 12:15:57;;;;;;;6.33;5.87;;;24.80;35.30;;;;;;5052500;28;20409;-65
2021/07/27 12:18:24;;;;;;;6.67;5.43;;;24.80;35.40;;;;;;5052719;28;20199;-64
2021/07/27 12:20:50;;;;;;;6.03;5.63;;;24.80;35.50;;;;;;5052885;28;20189;-64
2021/07/27 12:23:18;;;;;;;6.70;5.93;;;24.80;35.60;;;;;;5052736;28;20434;-64
2021/07/27 12:25:44;;;;;;;6.60;6.00;;;24.80;35.60;;;;;;5052802;28;20418;-64
2021/07/27 12:28:10;;;;;;;6.50;5.90;;;24.80;35.60;;;;;;5052287;28;20816;-65
2021/07/27 12:30:35;;;;;;;6.37;5.87;;;24.80;35.70;;;;;;5052621;28;20410;-64
2021/07/27 12:33:01;;;;;;;6.03;5.63;;;24.80;35.60;;;;;;5052670;28;20168;-64
2021/07/27 12:35:26;;;;;;;5.80;5.40;;;24.80;35.50;;;;;;5052284;28;20489;-64
2021/07/27 12:37:52;;;;;;;5.60;5.20;;;24.80;35.50;;;;;;5052540;28;20184;-64
2021/07/27 12:40:18;;;;;;;6.17;5.77;;;24.80;35.50;;;;;;5052368;28;20219;-64
2021/07/27 12:42:43;;;;;;;5.77;5.37;;;24.70;35.40;;;;;;5052200;28;20176;-64
2021/07/27 12:45:09;;;;;;;5.73;5.33;;;24.80;35.50;;;;;;5052235;28;20202;-65
2021/07/27 12:47:36;;;;;;;5.27;4.87;;;24.80;35.40;;;;;;5051867;28;20196;-65
2021/07/27 12:50:03;;;;;;;6.50;5.90;;;24.70;35.30;;;;;;5052252;28;20422;-64
2021/07/27 12:52:29;;;;;;;6.10;5.70;;;24.80;35.40;;;;;;5052749;28;20402;-65
2021/07/27 12:54:54;;;;;;;5.90;5.40;;;24.80;35.40;;;;;;5052687;28;20414;-64
2021/07/27 12:57:20;;;;;;;5.83;5.23;;;24.80;35.40;;;;;;5052022;28;20584;-65
2021/07/27 12:59:46;;;;;;;5.87;5.40;;;24.80;35.40;;;;;;5052292;28;20297;-65
2021/07/27 13:02:11;;;;;;;5.17;4.80;;;24.70;35.30;;;;;;5052246;28;20175;-65
2021/07/27 13:04:37;;;;;;;5.97;5.53;;;24.80;35.30;;;;;;5050792;28;20309;-65